createdAt,value
2019-05-19T00:00:40.704Z,12.90
2019-05-19T00:03:14.502Z,12.90
2019-05-19T00:05:48.187Z,12.90
2019-05-19T00:08:22.160Z,12.80
2019-05-19T00:10:55.743Z,12.80
2019-05-19T00:13:29.324Z,12.80
2019-05-19T00:16:02.931Z,12.70
2019-05-19T00:18:35.893Z,12.70
2019-05-19T00:21:09.671Z,12.70
2019-05-19T00:23:43.026Z,12.70
2019-05-19T00:26:17.217Z,12.70
2019-05-19T00:28:50.975Z,12.70
2019-05-19T00:31:24.716Z,12.60
2019-05-19T00:33:59.201Z,12.60
2019-05-19T00:36:33.530Z,12.70
2019-05-19T00:39:07.458Z,12.60
2019-05-19T00:41:41.418Z,12.60
2019-05-19T00:44:15.496Z,12.60
2019-05-19T00:46:49.077Z,12.60
2019-05-19T00:49:22.361Z,12.60
2019-05-19T00:51:56.217Z,12.50
2019-05-19T00:54:30.673Z,12.50
2019-05-19T00:57:04.897Z,12.60
2019-05-19T00:59:41.423Z,12.60
2019-05-19T01:02:15.771Z,12.60
2019-05-19T01:04:49.963Z,12.60
2019-05-19T01:07:23.583Z,12.60
2019-05-19T01:09:57.203Z,12.50
2019-05-19T01:12:30.609Z,12.50
2019-05-19T01:15:05.017Z,12.60
2019-05-19T01:17:38.913Z,12.60
2019-05-19T01:20:12.952Z,12.60
2019-05-19T01:22:46.497Z,12.60
2019-05-19T01:25:19.968Z,12.50
2019-05-19T01:27:53.554Z,12.60
2019-05-19T01:30:26.643Z,12.60
2019-05-19T01:33:00.356Z,12.60
2019-05-19T01:35:33.043Z,12.60
2019-05-19T01:38:06.552Z,12.60
2019-05-19T01:40:40.414Z,12.60
2019-05-19T01:43:13.427Z,12.60
2019-05-19T01:45:46.757Z,12.60
2019-05-19T01:48:20.847Z,12.60
2019-05-19T01:50:54.532Z,12.70
2019-05-19T01:53:29.020Z,12.70
2019-05-19T01:56:03.162Z,12.70
2019-05-19T01:58:37.005Z,12.60
2019-05-19T02:01:11.008Z,12.60
2019-05-19T02:03:45.365Z,12.70
2019-05-19T02:06:18.952Z,12.70
2019-05-19T02:08:52.266Z,12.70
2019-05-19T02:11:25.859Z,12.70
2019-05-19T02:13:59.579Z,12.70
2019-05-19T02:16:33.244Z,12.70
2019-05-19T02:19:06.372Z,12.70
2019-05-19T02:21:39.707Z,12.70
2019-05-19T02:24:13.240Z,12.60
2019-05-19T02:26:46.532Z,12.60
2019-05-19T02:29:19.893Z,12.50
2019-05-19T02:31:52.640Z,12.50
2019-05-19T02:34:25.794Z,12.50
2019-05-19T02:36:58.907Z,12.50
2019-05-19T02:39:33.952Z,12.60
2019-05-19T02:42:08.757Z,12.60
2019-05-19T02:44:42.894Z,12.60
2019-05-19T02:47:18.400Z,12.60
2019-05-19T02:49:53.259Z,12.60
2019-05-19T02:52:27.286Z,12.60
2019-05-19T02:55:01.828Z,12.50
2019-05-19T02:57:36.407Z,12.50
2019-05-19T03:00:10.576Z,12.50
2019-05-19T03:02:43.787Z,12.50
2019-05-19T03:05:18.208Z,12.50
2019-05-19T03:07:51.660Z,12.50
2019-05-19T03:10:24.952Z,12.50
2019-05-19T03:12:57.957Z,12.40
2019-05-19T03:15:31.194Z,12.40
2019-05-19T03:18:04.653Z,12.40
2019-05-19T03:20:38.401Z,12.40
2019-05-19T03:23:11.963Z,12.50
2019-05-19T03:25:44.993Z,12.50
2019-05-19T03:28:18.752Z,12.50
2019-05-19T03:31:12.250Z,12.50
2019-05-19T03:33:49.226Z,12.60
2019-05-19T03:36:22.656Z,12.60
2019-05-19T03:38:55.877Z,12.60
2019-05-19T03:41:29.240Z,12.60
2019-05-19T03:44:02.806Z,12.60
2019-05-19T03:46:36.115Z,12.60
2019-05-19T03:49:09.663Z,12.60
2019-05-19T03:51:43.344Z,12.70
2019-05-19T03:54:16.649Z,12.70
2019-05-19T03:56:49.922Z,12.70
2019-05-19T03:59:23.427Z,12.60
2019-05-19T04:01:56.640Z,12.70
2019-05-19T04:04:29.943Z,12.70
2019-05-19T04:07:02.941Z,12.70
2019-05-19T04:09:35.998Z,12.70
2019-05-19T04:12:09.065Z,12.70
2019-05-19T04:14:42.462Z,12.70
2019-05-19T04:17:15.944Z,12.70
2019-05-19T04:19:48.759Z,12.70
2019-05-19T04:22:22.318Z,12.70
2019-05-19T04:24:55.613Z,12.80
2019-05-19T04:27:28.986Z,12.80
2019-05-19T04:30:01.984Z,12.80
2019-05-19T04:32:35.431Z,12.80
2019-05-19T04:35:09.060Z,12.90
2019-05-19T04:37:42.271Z,12.90
2019-05-19T04:40:15.888Z,12.90
2019-05-19T04:42:49.322Z,13.00
2019-05-19T04:45:22.693Z,13.00
2019-05-19T04:47:55.914Z,13.00
2019-05-19T04:50:29.550Z,13.00
2019-05-19T04:53:03.042Z,13.00
2019-05-19T04:55:36.722Z,13.10
2019-05-19T04:58:10.169Z,13.10
2019-05-19T05:00:43.689Z,13.20
2019-05-19T05:03:16.920Z,13.20
2019-05-19T05:05:49.742Z,13.10
2019-05-19T05:08:29.713Z,13.10
2019-05-19T05:10:58.155Z,13.10
2019-05-19T05:13:31.910Z,13.10
2019-05-19T05:16:05.358Z,13.10
2019-05-19T05:18:39.015Z,13.10
2019-05-19T05:21:12.618Z,13.10
2019-05-19T05:23:46.017Z,13.10
2019-05-19T05:26:20.198Z,13.20
2019-05-19T05:28:54.497Z,13.20
2019-05-19T05:31:27.529Z,13.20
2019-05-19T05:34:02.343Z,13.20
2019-05-19T05:36:36.173Z,13.30
2019-05-19T05:39:10.111Z,13.20
2019-05-19T05:41:43.725Z,13.20
2019-05-19T05:44:17.950Z,13.10
2019-05-19T05:46:52.103Z,13.10
2019-05-19T05:49:25.638Z,13.00
2019-05-19T05:51:59.263Z,13.00
2019-05-19T05:54:33.136Z,13.00
2019-05-19T05:57:06.522Z,13.00
2019-05-19T05:59:39.838Z,12.90
2019-05-19T06:02:14.223Z,12.90
2019-05-19T06:04:48.369Z,12.90
2019-05-19T06:07:23.461Z,12.90
2019-05-19T06:09:56.865Z,12.90
2019-05-19T06:12:31.000Z,13.00
2019-05-19T06:15:04.291Z,13.00
2019-05-19T06:17:37.735Z,13.00
2019-05-19T06:20:11.668Z,13.10
2019-05-19T06:22:55.938Z,13.10
2019-05-19T06:25:21.353Z,13.20
2019-05-19T06:27:55.550Z,13.20
2019-05-19T06:30:29.303Z,13.30
2019-05-19T06:33:04.637Z,13.40
2019-05-19T06:35:41.331Z,13.40
2019-05-19T06:38:18.535Z,13.40
2019-05-19T06:40:52.187Z,13.40
2019-05-19T06:43:26.449Z,13.30
2019-05-19T06:46:00.383Z,13.30
2019-05-19T06:48:33.768Z,13.20
2019-05-19T06:51:07.810Z,13.20
2019-05-19T06:53:41.845Z,13.20
2019-05-19T06:56:23.275Z,13.10
2019-05-19T06:58:57.722Z,13.20
2019-05-19T07:01:33.026Z,13.20
2019-05-19T07:04:06.485Z,13.20
2019-05-19T07:06:39.805Z,13.10
2019-05-19T07:09:13.603Z,13.00
2019-05-19T07:11:46.800Z,12.90
2019-05-19T07:14:20.443Z,12.90
2019-05-19T07:16:54.247Z,12.90
2019-05-19T07:19:27.507Z,13.00
2019-05-19T07:22:02.048Z,13.10
2019-05-19T07:24:36.479Z,13.10
2019-05-19T07:27:10.629Z,13.20
2019-05-19T07:29:45.071Z,13.10
2019-05-19T07:32:19.941Z,13.20
2019-05-19T07:34:53.435Z,13.20
2019-05-19T07:37:27.564Z,13.30
2019-05-19T07:40:04.102Z,13.50
2019-05-19T07:42:38.877Z,13.70
2019-05-19T07:45:21.258Z,13.90
2019-05-19T07:47:57.312Z,14.00
2019-05-19T07:50:37.689Z,14.10
2019-05-19T07:53:12.648Z,14.20
2019-05-19T07:55:48.517Z,14.30
2019-05-19T07:58:23.980Z,14.60
2019-05-19T08:00:58.807Z,14.90
2019-05-19T08:03:32.578Z,15.20
2019-05-19T08:06:06.394Z,15.40
2019-05-19T08:08:40.437Z,15.90
2019-05-19T08:11:13.858Z,16.40
2019-05-19T08:13:48.671Z,17.00
2019-05-19T08:16:22.601Z,17.50
2019-05-19T08:18:56.852Z,17.60
2019-05-19T08:21:30.151Z,17.50
2019-05-19T08:24:03.937Z,17.00
2019-05-19T08:26:38.412Z,17.10
2019-05-19T08:29:12.335Z,17.00
2019-05-19T08:31:45.555Z,16.80
2019-05-19T08:34:19.973Z,16.50
2019-05-19T08:36:54.107Z,16.60
2019-05-19T08:39:28.290Z,16.60
2019-05-19T08:42:02.691Z,16.30
2019-05-19T08:44:40.024Z,16.20
2019-05-19T08:47:14.559Z,15.90
2019-05-19T08:49:49.822Z,16.70
2019-05-19T08:52:25.312Z,18.30
2019-05-19T08:54:59.353Z,19.50
2019-05-19T08:57:33.706Z,19.70
2019-05-19T09:00:09.815Z,20.30
2019-05-19T09:02:43.646Z,20.40
2019-05-19T09:05:17.962Z,20.00
2019-05-19T09:07:51.935Z,20.30
2019-05-19T09:10:26.247Z,20.40
2019-05-19T09:12:59.865Z,20.50
2019-05-19T09:15:34.458Z,20.40
2019-05-19T09:18:08.838Z,20.00
2019-05-19T09:20:42.708Z,19.60
2019-05-19T09:23:18.327Z,19.00
2019-05-19T09:25:52.897Z,18.90
2019-05-19T09:28:27.766Z,18.40
2019-05-19T09:31:02.161Z,18.10
2019-05-19T09:33:36.677Z,17.70
2019-05-19T09:36:11.866Z,17.50
2019-05-19T09:38:47.504Z,17.20
2019-05-19T09:41:28.189Z,17.00
2019-05-19T09:44:03.705Z,16.50
2019-05-19T09:46:38.350Z,16.50
2019-05-19T09:49:31.521Z,16.40
2019-05-19T09:52:06.696Z,16.50
2019-05-19T09:54:45.156Z,16.70
2019-05-19T09:57:17.540Z,17.00
2019-05-19T09:59:52.896Z,17.30
2019-05-19T10:02:28.521Z,17.50
2019-05-19T10:05:02.481Z,17.40
2019-05-19T10:07:36.462Z,17.20
2019-05-19T10:10:18.045Z,16.60
2019-05-19T10:12:53.431Z,15.80
2019-05-19T10:15:28.622Z,14.90
2019-05-19T10:18:04.951Z,14.40
2019-05-19T10:20:40.518Z,14.10
2019-05-19T10:23:13.935Z,14.00
2019-05-19T10:25:47.956Z,13.90
2019-05-19T10:28:22.767Z,14.00
2019-05-19T10:30:58.209Z,14.00
2019-05-19T10:33:35.042Z,14.20
2019-05-19T10:36:08.878Z,14.20
2019-05-19T10:38:42.919Z,14.20
2019-05-19T10:41:20.852Z,14.30
2019-05-19T10:44:02.007Z,14.30
2019-05-19T10:46:36.111Z,14.30
2019-05-19T10:49:19.841Z,14.40
2019-05-19T10:51:53.880Z,14.40
2019-05-19T10:54:28.443Z,14.60
2019-05-19T10:57:04.071Z,14.80
2019-05-19T10:59:39.159Z,15.20
2019-05-19T11:02:13.134Z,15.50
2019-05-19T11:04:48.097Z,15.80
2019-05-19T11:07:22.752Z,15.90
2019-05-19T11:10:01.985Z,16.20
2019-05-19T11:12:37.357Z,16.30
2019-05-19T11:15:13.076Z,16.40
2019-05-19T11:17:46.677Z,16.40
2019-05-19T11:20:19.453Z,16.40
2019-05-19T11:22:53.245Z,16.40
2019-05-19T11:25:33.805Z,16.50
2019-05-19T11:28:05.099Z,16.40
2019-05-19T11:30:39.848Z,16.50
2019-05-19T11:33:13.411Z,16.50
2019-05-19T11:35:47.187Z,16.70
2019-05-19T11:38:22.189Z,17.00
2019-05-19T11:40:56.031Z,17.40
2019-05-19T11:43:30.623Z,18.00
2019-05-19T11:46:05.464Z,18.20
2019-05-19T11:48:40.878Z,18.20
2019-05-19T11:51:15.443Z,18.10
2019-05-19T11:53:50.115Z,18.00
2019-05-19T11:56:24.307Z,18.10
2019-05-19T11:58:58.121Z,18.30
2019-05-19T12:01:32.649Z,18.20
2019-05-19T12:04:07.084Z,18.30
2019-05-19T12:06:40.571Z,18.40
2019-05-19T12:09:17.927Z,18.30
2019-05-19T12:11:51.693Z,17.90
2019-05-19T12:14:26.888Z,17.50
2019-05-19T12:17:02.111Z,16.80
2019-05-19T12:19:35.623Z,17.10
2019-05-19T12:22:10.289Z,17.30
2019-05-19T12:24:43.674Z,17.70
2019-05-19T12:27:17.344Z,18.00
2019-05-19T12:29:52.438Z,18.10
2019-05-19T12:32:26.454Z,18.20
2019-05-19T12:35:01.663Z,18.20
2019-05-19T12:37:36.345Z,18.20
2019-05-19T12:40:12.012Z,18.20
2019-05-19T12:42:47.501Z,18.10
2019-05-19T12:45:26.710Z,17.70
2019-05-19T12:48:03.603Z,17.50
2019-05-19T12:50:37.751Z,17.30
2019-05-19T12:53:12.446Z,17.10
2019-05-19T12:55:46.133Z,16.90
2019-05-19T12:58:22.134Z,16.60
2019-05-19T13:00:57.424Z,16.30
2019-05-19T13:03:31.608Z,16.20
2019-05-19T13:06:06.230Z,16.00
2019-05-19T13:08:39.438Z,15.70
2019-05-19T13:11:13.553Z,15.60
2019-05-19T13:13:47.417Z,15.40
2019-05-19T13:16:23.129Z,14.70
2019-05-19T13:18:57.128Z,14.40
2019-05-19T13:21:37.609Z,14.10
2019-05-19T13:24:07.282Z,13.70
2019-05-19T13:26:55.552Z,13.50
2019-05-19T13:29:16.847Z,13.30
2019-05-19T13:31:52.070Z,13.30
2019-05-19T13:34:26.361Z,13.40
2019-05-19T13:37:01.393Z,13.30
2019-05-19T13:39:35.426Z,13.40
2019-05-19T13:42:09.285Z,13.40
2019-05-19T13:44:42.936Z,13.40
2019-05-19T13:47:16.470Z,13.50
2019-05-19T13:49:52.343Z,13.50
2019-05-19T13:52:26.358Z,13.50
2019-05-19T13:55:00.364Z,13.60
2019-05-19T13:57:33.619Z,13.70
2019-05-19T14:00:07.566Z,13.70
2019-05-19T14:02:41.389Z,13.80
2019-05-19T14:05:14.910Z,13.80
2019-05-19T14:07:48.553Z,13.90
2019-05-19T14:10:22.111Z,13.90
2019-05-19T14:12:55.686Z,13.90
2019-05-19T14:15:30.693Z,14.00
2019-05-19T14:18:05.432Z,14.00
2019-05-19T14:20:38.998Z,14.10
2019-05-19T14:23:13.340Z,14.30
2019-05-19T14:25:47.932Z,14.50
2019-05-19T14:28:21.823Z,14.70
2019-05-19T14:30:56.090Z,14.70
2019-05-19T14:33:30.593Z,14.80
2019-05-19T14:36:05.743Z,14.90
2019-05-19T14:38:41.857Z,15.00
2019-05-19T14:41:15.457Z,15.20
2019-05-19T14:43:49.612Z,14.90
2019-05-19T14:46:23.918Z,14.70
2019-05-19T14:48:59.278Z,14.60
2019-05-19T14:51:33.030Z,14.70
2019-05-19T14:54:08.092Z,14.70
2019-05-19T14:56:42.151Z,14.50
2019-05-19T14:59:16.921Z,14.30
2019-05-19T15:01:51.390Z,14.10
2019-05-19T15:04:27.378Z,14.10
2019-05-19T15:07:02.289Z,14.10
2019-05-19T15:09:37.614Z,14.10
2019-05-19T15:12:11.878Z,14.20
2019-05-19T15:14:46.640Z,14.20
2019-05-19T15:17:21.183Z,14.10
2019-05-19T15:19:57.124Z,13.90
2019-05-19T15:22:32.353Z,13.80
2019-05-19T15:25:07.033Z,13.90
2019-05-19T15:27:40.748Z,13.90
2019-05-19T15:30:14.969Z,13.80
2019-05-19T15:32:49.721Z,13.80
2019-05-19T15:35:24.104Z,13.70
2019-05-19T15:37:58.371Z,13.70
2019-05-19T15:40:32.947Z,13.70
2019-05-19T15:43:07.848Z,13.80
2019-05-19T15:45:41.702Z,13.80
2019-05-19T15:48:17.794Z,13.70
2019-05-19T15:50:52.661Z,13.70
2019-05-19T15:53:27.925Z,13.70
2019-05-19T15:56:03.098Z,13.70
2019-05-19T15:58:37.236Z,13.60
2019-05-19T16:01:13.393Z,13.60
2019-05-19T16:03:48.015Z,13.60
2019-05-19T16:06:22.460Z,13.50
2019-05-19T16:08:58.293Z,13.50
2019-05-19T16:11:35.077Z,13.40
2019-05-19T16:14:11.572Z,13.40
2019-05-19T16:16:48.741Z,13.40
2019-05-19T16:19:23.373Z,13.30
2019-05-19T16:21:57.502Z,13.30
2019-05-19T16:24:31.646Z,13.30
2019-05-19T16:27:05.552Z,13.30
2019-05-19T16:29:39.653Z,13.30
2019-05-19T16:32:15.565Z,13.30
2019-05-19T16:34:51.347Z,13.20
2019-05-19T16:37:25.328Z,13.20
2019-05-19T16:39:59.209Z,13.20
2019-05-19T16:42:33.351Z,13.20
2019-05-19T16:45:09.554Z,13.20
2019-05-19T16:47:43.448Z,13.20
2019-05-19T16:50:17.415Z,13.20
2019-05-19T16:52:52.447Z,13.30
2019-05-19T16:55:29.259Z,13.20
2019-05-19T16:58:03.362Z,13.20
2019-05-19T17:00:38.021Z,13.20
2019-05-19T17:03:12.142Z,13.20
2019-05-19T17:05:46.381Z,13.20
2019-05-19T17:08:22.171Z,13.30
2019-05-19T17:10:56.581Z,13.30
2019-05-19T17:13:31.021Z,13.20
2019-05-19T17:16:05.088Z,13.20
2019-05-19T17:18:39.425Z,13.10
2019-05-19T17:21:13.466Z,13.20
2019-05-19T17:23:47.878Z,13.20
2019-05-19T17:26:22.247Z,13.10
2019-05-19T17:29:00.870Z,13.10
2019-05-19T17:31:33.509Z,13.10
2019-05-19T17:34:07.599Z,13.10
2019-05-19T17:36:41.157Z,13.10
2019-05-19T17:39:15.356Z,13.10
2019-05-19T17:41:49.813Z,13.00
2019-05-19T17:44:25.402Z,13.00
2019-05-19T17:47:00.743Z,12.90
2019-05-19T17:49:35.605Z,12.90
2019-05-19T17:52:12.431Z,12.80
2019-05-19T17:54:50.701Z,12.80
2019-05-19T17:57:25.864Z,12.70
2019-05-19T18:00:00.513Z,12.70
2019-05-19T18:02:35.637Z,12.60
2019-05-19T18:05:09.795Z,12.50
2019-05-19T18:07:46.516Z,12.50
2019-05-19T18:10:20.981Z,12.50
2019-05-19T18:12:55.220Z,12.40
2019-05-19T18:15:30.115Z,12.40
2019-05-19T18:18:04.475Z,12.30
2019-05-19T18:20:38.463Z,12.30
2019-05-19T18:23:11.980Z,12.30
2019-05-19T18:25:45.841Z,12.30
2019-05-19T18:28:20.669Z,12.30
2019-05-19T18:30:55.642Z,12.20
2019-05-19T18:33:31.261Z,12.20
2019-05-19T18:36:05.438Z,12.30
2019-05-19T18:38:40.558Z,12.20
2019-05-19T18:41:15.027Z,12.20
2019-05-19T18:43:49.123Z,12.20
2019-05-19T18:46:23.413Z,12.20
2019-05-19T18:48:57.621Z,12.20
2019-05-19T18:51:31.054Z,12.10
2019-05-19T18:54:06.318Z,12.10
2019-05-19T18:56:51.150Z,12.10
2019-05-19T18:59:25.746Z,12.10
2019-05-19T19:02:00.641Z,12.00
2019-05-19T19:04:34.276Z,11.90
2019-05-19T19:07:08.754Z,11.90
2019-05-19T19:09:42.809Z,11.90
2019-05-19T19:12:16.507Z,11.90
2019-05-19T19:14:54.311Z,11.80
2019-05-19T19:17:28.867Z,11.80
2019-05-19T19:20:02.628Z,11.80
2019-05-19T19:22:38.662Z,11.80
2019-05-19T19:25:13.497Z,11.80
2019-05-19T19:27:48.966Z,11.80
2019-05-19T19:30:26.483Z,11.80
2019-05-19T19:33:01.082Z,11.80
2019-05-19T19:35:39.351Z,11.80
2019-05-19T19:38:12.613Z,11.80
2019-05-19T19:40:47.123Z,11.80
2019-05-19T19:43:22.189Z,11.70
2019-05-19T19:45:56.732Z,11.70
2019-05-19T19:48:31.095Z,11.60
2019-05-19T19:51:06.701Z,11.60
2019-05-19T19:53:41.171Z,11.60
2019-05-19T19:56:19.302Z,11.70
2019-05-19T19:58:54.708Z,11.60
2019-05-19T20:01:29.357Z,11.60
2019-05-19T20:04:04.511Z,11.60
2019-05-19T20:06:39.909Z,11.60
2019-05-19T20:09:14.781Z,11.60
2019-05-19T20:11:48.898Z,11.60
2019-05-19T20:14:24.603Z,11.60
2019-05-19T20:16:59.589Z,11.60
2019-05-19T20:19:38.131Z,11.60
2019-05-19T20:22:13.104Z,11.60
2019-05-19T20:24:50.125Z,11.60
2019-05-19T20:27:24.160Z,11.70
2019-05-19T20:29:59.829Z,11.70
2019-05-19T20:32:33.350Z,11.70
2019-05-19T20:35:10.475Z,11.70
2019-05-19T20:37:47.083Z,11.80
2019-05-19T20:40:25.225Z,11.80
2019-05-19T20:43:05.263Z,11.90
2019-05-19T20:45:40.083Z,11.90
2019-05-19T20:48:14.593Z,11.90
2019-05-19T20:50:51.211Z,11.90
2019-05-19T20:53:25.696Z,11.90
2019-05-19T20:56:01.190Z,11.90
2019-05-19T20:58:34.716Z,11.90
2019-05-19T21:01:13.021Z,11.90
2019-05-19T21:03:47.166Z,11.90
2019-05-19T21:06:22.124Z,11.90
2019-05-19T21:08:56.619Z,11.90
2019-05-19T21:11:31.401Z,11.90
2019-05-19T21:14:09.165Z,11.90
2019-05-19T21:16:44.873Z,11.90
2019-05-19T21:19:19.333Z,11.80
2019-05-19T21:21:56.323Z,11.80
2019-05-19T21:24:33.514Z,11.80
2019-05-19T21:27:08.184Z,11.80
2019-05-19T21:29:42.549Z,11.80
2019-05-19T21:32:18.098Z,11.80
2019-05-19T21:34:52.703Z,11.70
2019-05-19T21:37:26.611Z,11.70
2019-05-19T21:40:06.376Z,11.70
2019-05-19T21:42:40.655Z,11.70
2019-05-19T21:45:15.509Z,11.60
2019-05-19T21:47:53.328Z,11.60
2019-05-19T21:50:27.722Z,11.60
2019-05-19T21:53:02.270Z,11.60
2019-05-19T21:55:36.410Z,11.60
2019-05-19T21:58:10.578Z,11.60
2019-05-19T22:00:46.058Z,11.60
2019-05-19T22:03:20.770Z,11.70
2019-05-19T22:06:01.421Z,11.70
2019-05-19T22:08:36.726Z,11.70
2019-05-19T22:11:13.279Z,11.70
2019-05-19T22:13:47.475Z,11.70
2019-05-19T22:16:21.385Z,11.70
2019-05-19T22:18:55.537Z,11.70
2019-05-19T22:21:30.627Z,11.70
2019-05-19T22:24:04.601Z,11.70
2019-05-19T22:26:39.087Z,11.70
2019-05-19T22:29:13.753Z,11.70
2019-05-19T22:31:47.501Z,11.70
2019-05-19T22:34:21.271Z,11.80
2019-05-19T22:36:55.197Z,11.70
2019-05-19T22:39:29.170Z,11.70
2019-05-19T22:42:02.824Z,11.70
2019-05-19T22:44:37.109Z,11.70
2019-05-19T22:47:11.463Z,11.70
2019-05-19T22:49:52.754Z,11.70
2019-05-19T22:52:27.137Z,11.80
2019-05-19T22:55:02.329Z,11.80
2019-05-19T22:57:36.532Z,11.70
2019-05-19T23:00:11.779Z,11.80
2019-05-19T23:02:45.256Z,11.80
2019-05-19T23:05:19.848Z,11.80
2019-05-19T23:07:53.037Z,11.80
2019-05-19T23:10:26.152Z,11.80
2019-05-19T23:12:59.555Z,11.80
2019-05-19T23:15:33.134Z,11.80
2019-05-19T23:18:06.639Z,11.80
2019-05-19T23:20:40.096Z,11.80
2019-05-19T23:23:13.618Z,11.80
2019-05-19T23:25:47.248Z,11.90
2019-05-19T23:28:20.732Z,11.80
2019-05-19T23:30:54.435Z,11.80
2019-05-19T23:33:28.335Z,11.80
2019-05-19T23:36:02.264Z,11.80
2019-05-19T23:38:35.532Z,11.80
2019-05-19T23:41:08.848Z,11.80
2019-05-19T23:43:42.767Z,11.80
2019-05-19T23:46:16.399Z,11.80
2019-05-19T23:48:49.645Z,11.80
2019-05-19T23:51:23.381Z,11.70
2019-05-19T23:53:56.446Z,11.70
2019-05-19T23:56:30.065Z,11.60
2019-05-19T23:59:04.403Z,11.50
